SBSM/RIA METAR and TAF weather

Enter ICAO airport designator
Station Type Date Time Source
SBSM METAR 2020/01/20 13:00 UTC NOAA

SBSM 201300Z VRB03KT 9999 FEW040 30/24 Q1012


Station Type Date Time Source
SBSM Decoded METAR 2020/01/20 13:00 UTC NOAA

Santa Maria Aero-Porto , Brazil (SBSM) 29-43S 053-42W
Jan 20, 2020 - 08:00 AM EST / 2020.01.20 1300 UTC
Wind: Variable at 3 MPH (3 KT):0
Visibility: greater than 7 mile(s):0
Sky conditions: mostly clear
Temperature: 86 F (30 C)
Heat index: 95.0 F (35.0 C):1
Dew Point: 75 F (24 C)
Relative Humidity: 70%
Pressure (altimeter): 29.88 in. Hg (1012 hPa)
ob: SBSM 201300Z VRB03KT 9999 FEW040 30/24 Q1012
cycle: 13

Station Type Date Time Source
SBSM TAF 2020/01/20 12:33 UTC NOAA

TAF SBSM 200900Z 2012/2024 11007KT 9999 SCT040 TN26/2012Z TX33/2018Z PROB40
TEMPO 2016/2020 9999 VCTS SCT035 FEW040CB
RMK PDJ

Example: see airport list